sensor_id;sensor_type;location;lat;lon;timestamp;P1;durP1;ratioP1;P2;durP2;ratioP2
4642;SDS011;2334;48.710;9.622;2023-02-28T00:01:46;3.60;;;1.77;;
4642;SDS011;2334;48.710;9.622;2023-02-28T00:04:13;1.80;;;1.53;;
4642;SDS011;2334;48.710;9.622;2023-02-28T00:06:40;2.50;;;1.83;;
4642;SDS011;2334;48.710;9.622;2023-02-28T00:09:07;3.30;;;1.67;;
4642;SDS011;2334;48.710;9.622;2023-02-28T00:11:34;1.33;;;1.23;;
4642;SDS011;2334;48.710;9.622;2023-02-28T00:14:04;4.60;;;1.73;;
4642;SDS011;2334;48.710;9.622;2023-02-28T00:16:31;2.37;;;1.43;;
4642;SDS011;2334;48.710;9.622;2023-02-28T00:18:58;4.77;;;1.47;;
4642;SDS011;2334;48.710;9.622;2023-02-28T00:21:24;1.60;;;1.50;;
4642;SDS011;2334;48.710;9.622;2023-02-28T00:23:51;1.43;;;1.33;;
4642;SDS011;2334;48.710;9.622;2023-02-28T00:26:18;1.33;;;1.10;;
4642;SDS011;2334;48.710;9.622;2023-02-28T00:28:45;1.33;;;1.33;;
4642;SDS011;2334;48.710;9.622;2023-02-28T00:31:14;4.30;;;2.30;;
4642;SDS011;2334;48.710;9.622;2023-02-28T00:33:41;2.07;;;1.87;;
4642;SDS011;2334;48.710;9.622;2023-02-28T00:36:09;2.77;;;1.87;;
4642;SDS011;2334;48.710;9.622;2023-02-28T00:38:37;1.00;;;1.00;;
4642;SDS011;2334;48.710;9.622;2023-02-28T00:41:04;1.50;;;1.37;;
4642;SDS011;2334;48.710;9.622;2023-02-28T00:43:32;2.00;;;1.53;;
4642;SDS011;2334;48.710;9.622;2023-02-28T00:46:00;2.60;;;2.27;;
4642;SDS011;2334;48.710;9.622;2023-02-28T00:48:29;1.40;;;1.30;;
4642;SDS011;2334;48.710;9.622;2023-02-28T00:50:56;2.10;;;1.50;;
4642;SDS011;2334;48.710;9.622;2023-02-28T00:53:23;1.57;;;1.50;;
4642;SDS011;2334;48.710;9.622;2023-02-28T00:55:50;1.67;;;1.40;;
4642;SDS011;2334;48.710;9.622;2023-02-28T00:58:19;2.03;;;1.27;;
4642;SDS011;2334;48.710;9.622;2023-02-28T01:00:46;1.50;;;1.40;;
4642;SDS011;2334;48.710;9.622;2023-02-28T01:03:14;3.50;;;2.13;;
4642;SDS011;2334;48.710;9.622;2023-02-28T01:05:42;2.30;;;2.10;;
4642;SDS011;2334;48.710;9.622;2023-02-28T01:08:09;3.63;;;1.57;;
4642;SDS011;2334;48.710;9.622;2023-02-28T01:10:36;5.77;;;1.43;;
4642;SDS011;2334;48.710;9.622;2023-02-28T01:13:03;2.07;;;1.77;;
4642;SDS011;2334;48.710;9.622;2023-02-28T01:15:30;4.67;;;2.00;;
4642;SDS011;2334;48.710;9.622;2023-02-28T01:17:57;1.93;;;1.83;;
4642;SDS011;2334;48.710;9.622;2023-02-28T01:20:24;2.73;;;1.70;;
4642;SDS011;2334;48.710;9.622;2023-02-28T01:22:52;2.37;;;2.17;;
4642;SDS011;2334;48.710;9.622;2023-02-28T01:25:19;2.70;;;1.40;;
4642;SDS011;2334;48.710;9.622;2023-02-28T01:27:46;1.47;;;1.37;;
4642;SDS011;2334;48.710;9.622;2023-02-28T01:30:13;2.60;;;1.93;;
4642;SDS011;2334;48.710;9.622;2023-02-28T01:32:40;1.83;;;1.73;;
4642;SDS011;2334;48.710;9.622;2023-02-28T01:35:07;2.17;;;1.60;;
4642;SDS011;2334;48.710;9.622;2023-02-28T01:37:34;2.90;;;1.57;;
4642;SDS011;2334;48.710;9.622;2023-02-28T01:40:03;3.00;;;1.70;;
4642;SDS011;2334;48.710;9.622;2023-02-28T01:42:30;2.57;;;1.83;;
4642;SDS011;2334;48.710;9.622;2023-02-28T01:44:59;2.33;;;2.10;;
4642;SDS011;2334;48.710;9.622;2023-02-28T01:47:29;2.60;;;1.60;;
4642;SDS011;2334;48.710;9.622;2023-02-28T01:50:01;2.60;;;2.00;;
4642;SDS011;2334;48.710;9.622;2023-02-28T01:52:31;1.80;;;1.70;;
4642;SDS011;2334;48.710;9.622;2023-02-28T01:54:59;4.10;;;1.80;;
4642;SDS011;2334;48.710;9.622;2023-02-28T01:57:30;2.10;;;1.93;;
4642;SDS011;2334;48.710;9.622;2023-02-28T02:00:04;3.70;;;2.00;;
4642;SDS011;2334;48.710;9.622;2023-02-28T02:02:34;3.93;;;2.40;;
4642;SDS011;2334;48.710;9.622;2023-02-28T02:05:04;5.13;;;2.20;;
4642;SDS011;2334;48.710;9.622;2023-02-28T02:07:33;3.73;;;2.80;;
4642;SDS011;2334;48.710;9.622;2023-02-28T02:10:03;3.90;;;2.60;;
4642;SDS011;2334;48.710;9.622;2023-02-28T02:12:42;1.80;;;1.70;;
4642;SDS011;2334;48.710;9.622;2023-02-28T02:15:22;1.93;;;1.83;;
4642;SDS011;2334;48.710;9.622;2023-02-28T02:17:56;3.37;;;1.87;;
4642;SDS011;2334;48.710;9.622;2023-02-28T02:20:30;2.50;;;2.30;;
4642;SDS011;2334;48.710;9.622;2023-02-28T02:26:23;1.50;;;1.40;;
4642;SDS011;2334;48.710;9.622;2023-02-28T02:29:16;3.87;;;2.17;;
4642;SDS011;2334;48.710;9.622;2023-02-28T02:32:14;2.83;;;1.70;;
4642;SDS011;2334;48.710;9.622;2023-02-28T02:34:58;3.57;;;2.13;;
4642;SDS011;2334;48.710;9.622;2023-02-28T02:37:36;1.60;;;1.50;;
4642;SDS011;2334;48.710;9.622;2023-02-28T02:40:10;7.67;;;1.90;;
4642;SDS011;2334;48.710;9.622;2023-02-28T02:42:41;4.30;;;1.87;;
4642;SDS011;2334;48.710;9.622;2023-02-28T02:45:14;2.30;;;1.70;;
4642;SDS011;2334;48.710;9.622;2023-02-28T02:47:45;4.40;;;2.50;;
4642;SDS011;2334;48.710;9.622;2023-02-28T02:50:15;4.10;;;2.33;;
4642;SDS011;2334;48.710;9.622;2023-02-28T02:52:48;2.30;;;2.10;;
4642;SDS011;2334;48.710;9.622;2023-02-28T02:55:18;5.20;;;2.80;;
4642;SDS011;2334;48.710;9.622;2023-02-28T02:57:47;2.33;;;1.83;;
4642;SDS011;2334;48.710;9.622;2023-02-28T03:00:17;3.13;;;2.03;;
4642;SDS011;2334;48.710;9.622;2023-02-28T03:02:48;2.47;;;1.40;;
4642;SDS011;2334;48.710;9.622;2023-02-28T03:05:20;2.23;;;2.13;;
4642;SDS011;2334;48.710;9.622;2023-02-28T03:07:49;2.07;;;1.87;;
4642;SDS011;2334;48.710;9.622;2023-02-28T03:10:33;3.40;;;2.67;;
4642;SDS011;2334;48.710;9.622;2023-02-28T03:13:10;2.47;;;1.87;;
4642;SDS011;2334;48.710;9.622;2023-02-28T03:15:49;5.93;;;2.90;;
4642;SDS011;2334;48.710;9.622;2023-02-28T03:18:24;2.63;;;2.40;;
4642;SDS011;2334;48.710;9.622;2023-02-28T03:21:05;3.67;;;2.37;;
4642;SDS011;2334;48.710;9.622;2023-02-28T03:23:42;5.60;;;2.70;;
4642;SDS011;2334;48.710;9.622;2023-02-28T03:26:17;3.20;;;2.10;;
4642;SDS011;2334;48.710;9.622;2023-02-28T03:28:49;4.90;;;2.70;;
4642;SDS011;2334;48.710;9.622;2023-02-28T03:31:23;5.93;;;3.03;;
4642;SDS011;2334;48.710;9.622;2023-02-28T03:33:55;2.13;;;1.97;;
4642;SDS011;2334;48.710;9.622;2023-02-28T03:36:34;4.43;;;2.40;;
4642;SDS011;2334;48.710;9.622;2023-02-28T03:39:09;8.30;;;2.50;;
4642;SDS011;2334;48.710;9.622;2023-02-28T03:41:41;6.93;;;3.20;;
4642;SDS011;2334;48.710;9.622;2023-02-28T03:44:15;4.57;;;2.73;;
4642;SDS011;2334;48.710;9.622;2023-02-28T03:46:45;2.80;;;2.50;;
4642;SDS011;2334;48.710;9.622;2023-02-28T03:49:16;2.70;;;2.17;;
4642;SDS011;2334;48.710;9.622;2023-02-28T03:51:47;4.20;;;2.47;;
4642;SDS011;2334;48.710;9.622;2023-02-28T03:54:17;3.60;;;2.47;;
4642;SDS011;2334;48.710;9.622;2023-02-28T03:56:49;4.93;;;2.87;;
4642;SDS011;2334;48.710;9.622;2023-02-28T03:59:24;3.33;;;1.83;;
4642;SDS011;2334;48.710;9.622;2023-02-28T04:01:54;3.47;;;2.63;;
4642;SDS011;2334;48.710;9.622;2023-02-28T04:04:23;2.60;;;2.40;;
4642;SDS011;2334;48.710;9.622;2023-02-28T04:06:51;4.30;;;2.17;;
4642;SDS011;2334;48.710;9.622;2023-02-28T04:09:27;2.50;;;2.23;;
4642;SDS011;2334;48.710;9.622;2023-02-28T04:11:56;4.23;;;2.83;;
4642;SDS011;2334;48.710;9.622;2023-02-28T04:14:22;2.90;;;2.67;;
4642;SDS011;2334;48.710;9.622;2023-02-28T04:16:49;4.10;;;2.30;;
4642;SDS011;2334;48.710;9.622;2023-02-28T04:19:17;3.40;;;3.10;;
4642;SDS011;2334;48.710;9.622;2023-02-28T04:21:46;6.00;;;3.47;;
4642;SDS011;2334;48.710;9.622;2023-02-28T04:24:17;5.47;;;2.77;;
4642;SDS011;2334;48.710;9.622;2023-02-28T04:26:46;2.37;;;2.17;;
4642;SDS011;2334;48.710;9.622;2023-02-28T04:29:17;2.53;;;2.37;;
4642;SDS011;2334;48.710;9.622;2023-02-28T04:31:46;5.70;;;2.70;;
4642;SDS011;2334;48.710;9.622;2023-02-28T04:34:12;4.07;;;2.50;;
4642;SDS011;2334;48.710;9.622;2023-02-28T04:36:39;4.43;;;2.93;;
4642;SDS011;2334;48.710;9.622;2023-02-28T04:39:06;5.70;;;3.27;;
4642;SDS011;2334;48.710;9.622;2023-02-28T04:41:36;5.10;;;4.27;;
4642;SDS011;2334;48.710;9.622;2023-02-28T04:44:03;6.17;;;4.03;;
4642;SDS011;2334;48.710;9.622;2023-02-28T04:46:30;5.23;;;2.83;;
4642;SDS011;2334;48.710;9.622;2023-02-28T04:48:57;3.10;;;2.77;;
4642;SDS011;2334;48.710;9.622;2023-02-28T04:51:24;3.20;;;2.37;;
4642;SDS011;2334;48.710;9.622;2023-02-28T04:53:51;3.70;;;2.73;;
4642;SDS011;2334;48.710;9.622;2023-02-28T04:56:19;3.70;;;2.37;;
4642;SDS011;2334;48.710;9.622;2023-02-28T04:58:47;4.03;;;3.00;;
4642;SDS011;2334;48.710;9.622;2023-02-28T05:01:18;3.43;;;2.60;;
4642;SDS011;2334;48.710;9.622;2023-02-28T05:03:47;6.20;;;3.30;;
4642;SDS011;2334;48.710;9.622;2023-02-28T05:06:15;3.83;;;2.90;;
4642;SDS011;2334;48.710;9.622;2023-02-28T05:08:42;5.50;;;3.20;;
4642;SDS011;2334;48.710;9.622;2023-02-28T05:11:13;5.10;;;3.70;;
4642;SDS011;2334;48.710;9.622;2023-02-28T05:13:41;7.70;;;3.60;;
4642;SDS011;2334;48.710;9.622;2023-02-28T05:16:10;2.60;;;2.40;;
4642;SDS011;2334;48.710;9.622;2023-02-28T05:18:37;4.27;;;3.10;;
4642;SDS011;2334;48.710;9.622;2023-02-28T05:21:04;6.20;;;2.90;;
4642;SDS011;2334;48.710;9.622;2023-02-28T05:23:48;3.97;;;2.60;;
4642;SDS011;2334;48.710;9.622;2023-02-28T05:26:15;2.83;;;2.60;;
4642;SDS011;2334;48.710;9.622;2023-02-28T05:28:42;5.97;;;3.77;;
4642;SDS011;2334;48.710;9.622;2023-02-28T05:31:11;3.37;;;2.73;;
4642;SDS011;2334;48.710;9.622;2023-02-28T05:33:38;4.87;;;2.93;;
4642;SDS011;2334;48.710;9.622;2023-02-28T05:36:06;3.60;;;3.30;;
4642;SDS011;2334;48.710;9.622;2023-02-28T05:38:33;3.67;;;2.90;;
4642;SDS011;2334;48.710;9.622;2023-02-28T05:41:00;6.73;;;3.53;;
4642;SDS011;2334;48.710;9.622;2023-02-28T05:43:30;3.93;;;2.70;;
4642;SDS011;2334;48.710;9.622;2023-02-28T05:45:57;7.87;;;3.27;;
4642;SDS011;2334;48.710;9.622;2023-02-28T05:48:25;5.80;;;3.37;;
4642;SDS011;2334;48.710;9.622;2023-02-28T05:50:52;5.80;;;3.47;;
4642;SDS011;2334;48.710;9.622;2023-02-28T05:53:19;9.60;;;5.50;;
4642;SDS011;2334;48.710;9.622;2023-02-28T05:55:46;3.10;;;2.90;;
4642;SDS011;2334;48.710;9.622;2023-02-28T05:58:13;3.87;;;3.17;;
4642;SDS011;2334;48.710;9.622;2023-02-28T06:00:40;3.93;;;3.20;;
4642;SDS011;2334;48.710;9.622;2023-02-28T06:03:07;6.03;;;3.57;;
4642;SDS011;2334;48.710;9.622;2023-02-28T06:05:35;5.67;;;3.40;;
4642;SDS011;2334;48.710;9.622;2023-02-28T06:08:03;5.20;;;4.30;;
4642;SDS011;2334;48.710;9.622;2023-02-28T06:10:32;3.00;;;2.80;;
4642;SDS011;2334;48.710;9.622;2023-02-28T06:12:59;7.83;;;4.67;;
4642;SDS011;2334;48.710;9.622;2023-02-28T06:15:27;3.93;;;3.30;;
4642;SDS011;2334;48.710;9.622;2023-02-28T06:17:55;4.73;;;3.63;;
4642;SDS011;2334;48.710;9.622;2023-02-28T06:20:25;3.77;;;3.17;;
4642;SDS011;2334;48.710;9.622;2023-02-28T06:22:55;7.00;;;3.90;;
4642;SDS011;2334;48.710;9.622;2023-02-28T06:25:23;7.33;;;3.90;;
4642;SDS011;2334;48.710;9.622;2023-02-28T06:27:50;8.57;;;3.60;;
4642;SDS011;2334;48.710;9.622;2023-02-28T06:30:17;5.10;;;3.87;;
4642;SDS011;2334;48.710;9.622;2023-02-28T06:32:48;18.67;;;5.20;;
4642;SDS011;2334;48.710;9.622;2023-02-28T06:35:15;5.77;;;4.60;;
4642;SDS011;2334;48.710;9.622;2023-02-28T06:37:42;5.63;;;3.70;;
4642;SDS011;2334;48.710;9.622;2023-02-28T06:40:11;6.70;;;4.00;;
4642;SDS011;2334;48.710;9.622;2023-02-28T06:42:39;5.70;;;3.97;;
4642;SDS011;2334;48.710;9.622;2023-02-28T06:45:06;4.40;;;3.30;;
4642;SDS011;2334;48.710;9.622;2023-02-28T06:47:35;6.00;;;3.80;;
4642;SDS011;2334;48.710;9.622;2023-02-28T06:50:03;4.17;;;3.40;;
4642;SDS011;2334;48.710;9.622;2023-02-28T06:52:30;5.03;;;3.80;;
4642;SDS011;2334;48.710;9.622;2023-02-28T06:54:57;5.50;;;3.20;;
4642;SDS011;2334;48.710;9.622;2023-02-28T06:57:28;5.57;;;4.40;;
4642;SDS011;2334;48.710;9.622;2023-02-28T06:59:57;8.07;;;4.23;;
4642;SDS011;2334;48.710;9.622;2023-02-28T07:02:24;6.60;;;4.40;;
4642;SDS011;2334;48.710;9.622;2023-02-28T07:04:51;8.17;;;4.63;;
4642;SDS011;2334;48.710;9.622;2023-02-28T07:07:18;6.67;;;3.20;;
4642;SDS011;2334;48.710;9.622;2023-02-28T07:09:45;8.40;;;3.93;;
4642;SDS011;2334;48.710;9.622;2023-02-28T07:12:12;4.90;;;3.90;;
4642;SDS011;2334;48.710;9.622;2023-02-28T07:14:40;5.57;;;4.20;;
4642;SDS011;2334;48.710;9.622;2023-02-28T07:17:07;8.60;;;3.90;;
4642;SDS011;2334;48.710;9.622;2023-02-28T07:19:36;6.20;;;4.13;;
4642;SDS011;2334;48.710;9.622;2023-02-28T07:22:03;5.57;;;3.93;;
4642;SDS011;2334;48.710;9.622;2023-02-28T07:24:30;5.63;;;4.20;;
4642;SDS011;2334;48.710;9.622;2023-02-28T07:26:57;9.03;;;5.10;;
4642;SDS011;2334;48.710;9.622;2023-02-28T07:29:25;5.40;;;3.93;;
4642;SDS011;2334;48.710;9.622;2023-02-28T07:31:54;4.70;;;4.03;;
4642;SDS011;2334;48.710;9.622;2023-02-28T07:34:21;5.40;;;3.33;;
4642;SDS011;2334;48.710;9.622;2023-02-28T07:36:48;8.43;;;4.60;;
4642;SDS011;2334;48.710;9.622;2023-02-28T07:39:18;5.80;;;4.30;;
4642;SDS011;2334;48.710;9.622;2023-02-28T07:41:45;6.17;;;4.17;;
4642;SDS011;2334;48.710;9.622;2023-02-28T07:44:12;7.83;;;4.07;;
4642;SDS011;2334;48.710;9.622;2023-02-28T07:46:40;4.07;;;3.57;;
4642;SDS011;2334;48.710;9.622;2023-02-28T07:49:08;5.80;;;3.90;;
4642;SDS011;2334;48.710;9.622;2023-02-28T07:51:35;6.33;;;4.60;;
4642;SDS011;2334;48.710;9.622;2023-02-28T07:54:02;5.80;;;4.00;;
4642;SDS011;2334;48.710;9.622;2023-02-28T07:56:29;7.67;;;4.10;;
4642;SDS011;2334;48.710;9.622;2023-02-28T07:58:56;10.80;;;4.10;;
4642;SDS011;2334;48.710;9.622;2023-02-28T08:01:23;7.00;;;4.97;;
4642;SDS011;2334;48.710;9.622;2023-02-28T08:03:50;6.50;;;3.80;;
4642;SDS011;2334;48.710;9.622;2023-02-28T08:06:19;4.57;;;3.87;;
4642;SDS011;2334;48.710;9.622;2023-02-28T08:08:50;10.20;;;4.53;;
4642;SDS011;2334;48.710;9.622;2023-02-28T08:11:17;8.67;;;4.10;;
4642;SDS011;2334;48.710;9.622;2023-02-28T08:13:44;8.53;;;4.77;;
4642;SDS011;2334;48.710;9.622;2023-02-28T08:16:17;8.23;;;4.67;;
4642;SDS011;2334;48.710;9.622;2023-02-28T08:18:48;7.03;;;4.70;;
4642;SDS011;2334;48.710;9.622;2023-02-28T08:21:15;7.63;;;5.00;;
4642;SDS011;2334;48.710;9.622;2023-02-28T08:23:43;10.30;;;4.70;;
4642;SDS011;2334;48.710;9.622;2023-02-28T08:26:12;8.40;;;4.97;;
4642;SDS011;2334;48.710;9.622;2023-02-28T08:28:39;8.00;;;4.27;;
4642;SDS011;2334;48.710;9.622;2023-02-28T08:31:09;8.80;;;4.40;;
4642;SDS011;2334;48.710;9.622;2023-02-28T08:33:38;9.00;;;5.07;;
4642;SDS011;2334;48.710;9.622;2023-02-28T08:36:06;7.17;;;4.00;;
4642;SDS011;2334;48.710;9.622;2023-02-28T08:38:34;7.90;;;5.20;;
4642;SDS011;2334;48.710;9.622;2023-02-28T08:41:05;7.23;;;3.73;;
4642;SDS011;2334;48.710;9.622;2023-02-28T08:43:33;8.27;;;4.80;;
4642;SDS011;2334;48.710;9.622;2023-02-28T08:46:01;8.00;;;5.27;;
4642;SDS011;2334;48.710;9.622;2023-02-28T08:48:29;6.03;;;4.60;;
4642;SDS011;2334;48.710;9.622;2023-02-28T08:50:59;5.87;;;4.07;;
4642;SDS011;2334;48.710;9.622;2023-02-28T08:53:27;8.43;;;4.83;;
4642;SDS011;2334;48.710;9.622;2023-02-28T08:55:57;13.90;;;5.47;;
4642;SDS011;2334;48.710;9.622;2023-02-28T08:58:27;7.47;;;4.27;;
4642;SDS011;2334;48.710;9.622;2023-02-28T09:00:53;11.50;;;4.30;;
4642;SDS011;2334;48.710;9.622;2023-02-28T09:03:21;10.73;;;5.50;;
4642;SDS011;2334;48.710;9.622;2023-02-28T09:05:52;11.00;;;5.00;;
4642;SDS011;2334;48.710;9.622;2023-02-28T09:08:22;10.30;;;6.43;;
4642;SDS011;2334;48.710;9.622;2023-02-28T09:10:50;12.60;;;5.53;;
4642;SDS011;2334;48.710;9.622;2023-02-28T09:13:22;7.63;;;4.57;;
4642;SDS011;2334;48.710;9.622;2023-02-28T09:15:50;12.23;;;6.30;;
4642;SDS011;2334;48.710;9.622;2023-02-28T09:18:18;8.20;;;4.30;;
4642;SDS011;2334;48.710;9.622;2023-02-28T09:20:49;5.87;;;4.20;;
4642;SDS011;2334;48.710;9.622;2023-02-28T09:23:16;7.30;;;5.27;;
4642;SDS011;2334;48.710;9.622;2023-02-28T09:25:47;10.27;;;5.33;;
4642;SDS011;2334;48.710;9.622;2023-02-28T09:28:15;8.63;;;5.00;;
4642;SDS011;2334;48.710;9.622;2023-02-28T09:30:44;14.40;;;4.87;;
4642;SDS011;2334;48.710;9.622;2023-02-28T09:33:13;5.03;;;3.40;;
4642;SDS011;2334;48.710;9.622;2023-02-28T09:35:41;8.93;;;4.70;;
4642;SDS011;2334;48.710;9.622;2023-02-28T09:38:08;6.93;;;4.27;;
4642;SDS011;2334;48.710;9.622;2023-02-28T09:40:36;7.50;;;4.80;;
4642;SDS011;2334;48.710;9.622;2023-02-28T09:43:11;6.73;;;4.43;;
4642;SDS011;2334;48.710;9.622;2023-02-28T09:45:42;10.53;;;4.73;;
4642;SDS011;2334;48.710;9.622;2023-02-28T09:48:17;10.93;;;5.40;;
4642;SDS011;2334;48.710;9.622;2023-02-28T09:50:48;12.20;;;5.20;;
4642;SDS011;2334;48.710;9.622;2023-02-28T09:53:19;6.90;;;4.57;;
4642;SDS011;2334;48.710;9.622;2023-02-28T09:55:53;5.00;;;4.50;;
4642;SDS011;2334;48.710;9.622;2023-02-28T09:58:31;10.43;;;5.10;;
4642;SDS011;2334;48.710;9.622;2023-02-28T10:01:05;11.03;;;5.37;;
4642;SDS011;2334;48.710;9.622;2023-02-28T10:03:40;8.03;;;4.50;;
4642;SDS011;2334;48.710;9.622;2023-02-28T10:06:13;7.30;;;4.87;;
4642;SDS011;2334;48.710;9.622;2023-02-28T10:08:45;10.27;;;5.00;;
4642;SDS011;2334;48.710;9.622;2023-02-28T10:11:22;9.13;;;4.97;;
4642;SDS011;2334;48.710;9.622;2023-02-28T10:13:52;10.17;;;5.60;;
4642;SDS011;2334;48.710;9.622;2023-02-28T10:16:27;8.03;;;4.50;;
4642;SDS011;2334;48.710;9.622;2023-02-28T10:19:02;9.70;;;5.00;;
4642;SDS011;2334;48.710;9.622;2023-02-28T10:21:33;9.83;;;4.50;;
4642;SDS011;2334;48.710;9.622;2023-02-28T10:24:04;10.00;;;5.33;;
4642;SDS011;2334;48.710;9.622;2023-02-28T10:26:42;7.47;;;4.70;;
4642;SDS011;2334;48.710;9.622;2023-02-28T10:29:11;8.60;;;4.97;;
4642;SDS011;2334;48.710;9.622;2023-02-28T10:31:38;9.17;;;5.17;;
4642;SDS011;2334;48.710;9.622;2023-02-28T10:34:07;9.50;;;5.23;;
4642;SDS011;2334;48.710;9.622;2023-02-28T10:36:39;6.80;;;4.40;;
4642;SDS011;2334;48.710;9.622;2023-02-28T10:42:04;7.27;;;4.60;;
4642;SDS011;2334;48.710;9.622;2023-02-28T10:44:44;10.77;;;5.37;;
4642;SDS011;2334;48.710;9.622;2023-02-28T10:47:13;8.83;;;5.20;;
4642;SDS011;2334;48.710;9.622;2023-02-28T10:49:47;10.20;;;5.33;;
4642;SDS011;2334;48.710;9.622;2023-02-28T10:52:17;8.03;;;4.70;;
4642;SDS011;2334;48.710;9.622;2023-02-28T10:55:13;16.13;;;6.30;;
4642;SDS011;2334;48.710;9.622;2023-02-28T10:57:45;6.80;;;4.80;;
4642;SDS011;2334;48.710;9.622;2023-02-28T11:00:14;6.03;;;5.00;;
4642;SDS011;2334;48.710;9.622;2023-02-28T11:02:44;7.40;;;4.30;;
4642;SDS011;2334;48.710;9.622;2023-02-28T11:05:27;8.70;;;5.07;;
4642;SDS011;2334;48.710;9.622;2023-02-28T11:07:57;8.07;;;5.53;;
4642;SDS011;2334;48.710;9.622;2023-02-28T11:10:30;8.80;;;4.50;;
4642;SDS011;2334;48.710;9.622;2023-02-28T11:12:59;7.40;;;5.47;;
4642;SDS011;2334;48.710;9.622;2023-02-28T11:15:28;9.30;;;5.90;;
4642;SDS011;2334;48.710;9.622;2023-02-28T11:17:56;8.50;;;5.93;;
4642;SDS011;2334;48.710;9.622;2023-02-28T11:20:27;7.63;;;5.43;;
4642;SDS011;2334;48.710;9.622;2023-02-28T11:22:56;7.20;;;4.80;;
4642;SDS011;2334;48.710;9.622;2023-02-28T11:25:26;13.50;;;6.47;;
4642;SDS011;2334;48.710;9.622;2023-02-28T11:27:55;8.70;;;5.20;;
4642;SDS011;2334;48.710;9.622;2023-02-28T11:30:27;9.23;;;5.10;;
4642;SDS011;2334;48.710;9.622;2023-02-28T11:33:00;12.83;;;5.30;;
4642;SDS011;2334;48.710;9.622;2023-02-28T11:35:30;10.03;;;5.87;;
4642;SDS011;2334;48.710;9.622;2023-02-28T11:38:00;15.10;;;6.90;;
4642;SDS011;2334;48.710;9.622;2023-02-28T11:40:33;9.20;;;6.30;;
4642;SDS011;2334;48.710;9.622;2023-02-28T11:43:09;8.50;;;5.30;;
4642;SDS011;2334;48.710;9.622;2023-02-28T11:45:54;9.00;;;5.97;;
4642;SDS011;2334;48.710;9.622;2023-02-28T11:48:31;12.07;;;6.00;;
4642;SDS011;2334;48.710;9.622;2023-02-28T11:51:08;8.00;;;5.13;;
4642;SDS011;2334;48.710;9.622;2023-02-28T11:53:50;10.27;;;5.60;;
4642;SDS011;2334;48.710;9.622;2023-02-28T11:56:28;10.20;;;5.57;;
4642;SDS011;2334;48.710;9.622;2023-02-28T11:59:02;8.80;;;5.90;;
4642;SDS011;2334;48.710;9.622;2023-02-28T12:02:00;12.20;;;5.37;;
4642;SDS011;2334;48.710;9.622;2023-02-28T12:04:47;10.70;;;5.60;;
4642;SDS011;2334;48.710;9.622;2023-02-28T12:07:23;7.87;;;5.20;;
4642;SDS011;2334;48.710;9.622;2023-02-28T12:09:59;11.30;;;5.97;;
4642;SDS011;2334;48.710;9.622;2023-02-28T12:12:37;9.57;;;5.87;;
4642;SDS011;2334;48.710;9.622;2023-02-28T12:18:25;7.60;;;5.87;;
4642;SDS011;2334;48.710;9.622;2023-02-28T12:21:01;12.90;;;5.90;;
4642;SDS011;2334;48.710;9.622;2023-02-28T12:26:34;13.23;;;6.40;;
4642;SDS011;2334;48.710;9.622;2023-02-28T12:29:08;9.50;;;6.03;;
4642;SDS011;2334;48.710;9.622;2023-02-28T12:31:40;6.63;;;4.70;;
4642;SDS011;2334;48.710;9.622;2023-02-28T12:34:11;7.67;;;5.20;;
4642;SDS011;2334;48.710;9.622;2023-02-28T12:36:44;9.97;;;6.20;;
4642;SDS011;2334;48.710;9.622;2023-02-28T12:39:16;8.60;;;5.33;;
4642;SDS011;2334;48.710;9.622;2023-02-28T12:41:47;12.50;;;6.07;;
4642;SDS011;2334;48.710;9.622;2023-02-28T12:44:20;5.00;;;4.50;;
4642;SDS011;2334;48.710;9.622;2023-02-28T12:46:53;9.53;;;5.87;;
4642;SDS011;2334;48.710;9.622;2023-02-28T12:49:25;9.60;;;5.73;;
4642;SDS011;2334;48.710;9.622;2023-02-28T12:51:57;9.90;;;5.10;;
4642;SDS011;2334;48.710;9.622;2023-02-28T12:54:28;8.90;;;5.30;;
4642;SDS011;2334;48.710;9.622;2023-02-28T12:57:02;8.90;;;5.30;;
4642;SDS011;2334;48.710;9.622;2023-02-28T12:59:36;8.60;;;5.10;;
4642;SDS011;2334;48.710;9.622;2023-02-28T13:02:18;9.03;;;5.57;;
4642;SDS011;2334;48.710;9.622;2023-02-28T13:05:06;6.60;;;4.70;;
4642;SDS011;2334;48.710;9.622;2023-02-28T13:08:01;5.57;;;5.00;;
4642;SDS011;2334;48.710;9.622;2023-02-28T13:10:44;7.53;;;5.23;;
4642;SDS011;2334;48.710;9.622;2023-02-28T13:13:13;22.53;;;6.10;;
4642;SDS011;2334;48.710;9.622;2023-02-28T13:15:56;8.20;;;5.20;;
4642;SDS011;2334;48.710;9.622;2023-02-28T13:18:29;9.80;;;5.90;;
4642;SDS011;2334;48.710;9.622;2023-02-28T13:20:57;13.67;;;5.80;;
4642;SDS011;2334;48.710;9.622;2023-02-28T13:23:37;11.33;;;4.97;;
4642;SDS011;2334;48.710;9.622;2023-02-28T13:26:08;7.53;;;5.00;;
4642;SDS011;2334;48.710;9.622;2023-02-28T13:31:26;12.17;;;5.13;;
4642;SDS011;2334;48.710;9.622;2023-02-28T13:34:12;7.83;;;5.67;;
4642;SDS011;2334;48.710;9.622;2023-02-28T13:36:41;6.67;;;5.00;;
4642;SDS011;2334;48.710;9.622;2023-02-28T13:42:33;9.43;;;5.73;;
4642;SDS011;2334;48.710;9.622;2023-02-28T13:45:21;7.47;;;5.23;;
4642;SDS011;2334;48.710;9.622;2023-02-28T13:47:54;7.27;;;5.00;;
4642;SDS011;2334;48.710;9.622;2023-02-28T13:50:27;14.13;;;5.10;;
4642;SDS011;2334;48.710;9.622;2023-02-28T13:55:58;9.03;;;5.90;;
4642;SDS011;2334;48.710;9.622;2023-02-28T13:58:43;7.73;;;3.90;;
4642;SDS011;2334;48.710;9.622;2023-02-28T14:01:23;9.40;;;4.73;;
4642;SDS011;2334;48.710;9.622;2023-02-28T14:04:14;10.53;;;5.83;;
4642;SDS011;2334;48.710;9.622;2023-02-28T14:07:04;8.27;;;4.70;;
4642;SDS011;2334;48.710;9.622;2023-02-28T14:09:32;13.67;;;5.30;;
4642;SDS011;2334;48.710;9.622;2023-02-28T14:15:03;6.00;;;4.57;;
4642;SDS011;2334;48.710;9.622;2023-02-28T14:17:51;8.27;;;5.03;;
4642;SDS011;2334;48.710;9.622;2023-02-28T14:20:19;7.77;;;5.10;;
4642;SDS011;2334;48.710;9.622;2023-02-28T14:22:51;5.57;;;4.33;;
4642;SDS011;2334;48.710;9.622;2023-02-28T14:25:27;10.97;;;5.57;;
4642;SDS011;2334;48.710;9.622;2023-02-28T14:28:03;9.00;;;5.73;;
4642;SDS011;2334;48.710;9.622;2023-02-28T14:30:52;12.23;;;5.50;;
4642;SDS011;2334;48.710;9.622;2023-02-28T14:33:27;7.97;;;5.90;;
4642;SDS011;2334;48.710;9.622;2023-02-28T14:36:04;11.17;;;5.70;;
4642;SDS011;2334;48.710;9.622;2023-02-28T14:38:40;7.20;;;5.50;;
4642;SDS011;2334;48.710;9.622;2023-02-28T14:41:15;7.77;;;5.53;;
4642;SDS011;2334;48.710;9.622;2023-02-28T14:43:48;8.67;;;5.63;;
4642;SDS011;2334;48.710;9.622;2023-02-28T14:46:19;12.43;;;6.17;;
4642;SDS011;2334;48.710;9.622;2023-02-28T14:48:47;11.93;;;6.40;;
4642;SDS011;2334;48.710;9.622;2023-02-28T14:51:18;9.13;;;5.80;;
4642;SDS011;2334;48.710;9.622;2023-02-28T14:53:48;11.63;;;6.30;;
4642;SDS011;2334;48.710;9.622;2023-02-28T14:56:21;11.67;;;6.03;;
4642;SDS011;2334;48.710;9.622;2023-02-28T14:58:53;13.47;;;5.70;;
4642;SDS011;2334;48.710;9.622;2023-02-28T15:01:24;10.60;;;5.20;;
4642;SDS011;2334;48.710;9.622;2023-02-28T15:03:58;13.97;;;5.60;;
4642;SDS011;2334;48.710;9.622;2023-02-28T15:06:27;9.70;;;5.33;;
4642;SDS011;2334;48.710;9.622;2023-02-28T15:09:07;5.73;;;4.87;;
4642;SDS011;2334;48.710;9.622;2023-02-28T15:11:41;6.10;;;5.57;;
4642;SDS011;2334;48.710;9.622;2023-02-28T15:14:13;7.17;;;5.87;;
4642;SDS011;2334;48.710;9.622;2023-02-28T15:16:46;11.20;;;6.47;;
4642;SDS011;2334;48.710;9.622;2023-02-28T15:19:19;7.27;;;5.43;;
4642;SDS011;2334;48.710;9.622;2023-02-28T15:21:50;6.80;;;5.40;;
4642;SDS011;2334;48.710;9.622;2023-02-28T15:24:30;11.60;;;6.20;;
4642;SDS011;2334;48.710;9.622;2023-02-28T15:27:02;8.63;;;5.27;;
4642;SDS011;2334;48.710;9.622;2023-02-28T15:29:34;6.67;;;5.30;;
4642;SDS011;2334;48.710;9.622;2023-02-28T15:32:20;9.03;;;5.43;;
4642;SDS011;2334;48.710;9.622;2023-02-28T15:34:50;7.07;;;5.27;;
4642;SDS011;2334;48.710;9.622;2023-02-28T15:37:28;7.67;;;5.17;;
4642;SDS011;2334;48.710;9.622;2023-02-28T15:40:10;8.47;;;5.60;;
4642;SDS011;2334;48.710;9.622;2023-02-28T15:42:40;7.67;;;5.50;;
4642;SDS011;2334;48.710;9.622;2023-02-28T15:47:56;11.43;;;5.90;;
4642;SDS011;2334;48.710;9.622;2023-02-28T15:50:24;11.10;;;6.07;;
4642;SDS011;2334;48.710;9.622;2023-02-28T15:52:53;56.40;;;27.80;;
4642;SDS011;2334;48.710;9.622;2023-02-28T15:55:21;13.63;;;9.43;;
4642;SDS011;2334;48.710;9.622;2023-02-28T15:57:50;15.67;;;8.27;;
4642;SDS011;2334;48.710;9.622;2023-02-28T16:00:20;8.13;;;5.83;;
4642;SDS011;2334;48.710;9.622;2023-02-28T16:02:48;11.40;;;6.13;;
4642;SDS011;2334;48.710;9.622;2023-02-28T16:05:22;10.07;;;5.60;;